Nearby METAR Reports

 

EBAW - Antwerp/Deurne, Belgium
Distance from station: SSO 9km
Uppdaterad: 20/06/2024 06:20
Klart
Klart
 Vind från NNO
Vind: NNO 9 km/h
Temperatur: 13°C
Daggpunkt: 11°C
Luftfuktighet: 88%
Barometer: 1020 hPa
Summering: Klart
Visibility: greater than 10 km
2024/06/20 04:20 EBAW 200420Z AUTO 03005KT 360V080 CAVOK 13/11 Q1020
EHWO - Woensdrecht Rnla, Netherlands
Distance from station: NNV 20km
Uppdaterad: 20/06/2024 06:25
Genommulet
Genommulet
 Vind från NO
Vind: NO 15 km/h
Temperatur: 12°C
Daggpunkt: 11°C
Luftfuktighet: 94%
Barometer: 1020 hPa
Clouds: Genommulet
Visibility: 10 km
Cloud details: Genommulet 5486 m
2024/06/20 04:25 EHWO 200425Z AUTO 05008KT 360V070 9999 OVC180 12/11 Q1020 BLU
 
EBBR - Brussels Nationa, Belgium
Distance from station: S 43km
Uppdaterad: 20/06/2024 06:20
Klart
Klart
 Vind från ONO
Vind: ONO 6 km/h
Temperatur: 12°C
Daggpunkt: 11°C
Luftfuktighet: 94%
Barometer: 1019 hPa
Summering: Klart
Visibility: greater than 10 km
2024/06/20 04:20 EBBR 200420Z 06003KT 040V100 CAVOK 12/11 Q1019 NOSIG
EHGR - Gilze-Rijen Rnla, Netherlands
Distance from station: NO 47km
Uppdaterad: 20/06/2024 06:25
Genommulet
Genommulet
 Vind från NO
Vind: NO 13 km/h
Temperatur: 13°C
Daggpunkt: 11°C
Luftfuktighet: 88%
Barometer: 1020 hPa
Clouds: Genommulet
Visibility: 10 km
Cloud details: Genommulet 5182 m
2024/06/20 04:25 EHGR 200425Z AUTO 04007KT 350V090 9999 OVC170 13/11 Q1020 BLU
 
EBDT - Schaffen, Belgium
Distance from station: OSO 54km
Uppdaterad: 20/06/2024 06:25
Övervägande molnigt
Övervägande molnigt
 Vind från NO
Vind: NO 9 km/h
Temperatur: 14°C
Daggpunkt: 11°C
Luftfuktighet: 82%
Barometer: 1019 hPa
Clouds: Övervägande molnigt
Visibility: 10 km
Cloud details: Övervägande molnigt 4877 m
2024/06/20 04:25 EBDT 200425Z AUTO 05005KT 9999 BKN160/// 14/11 Q1019 BLU
EHFS - Vlissingen, Netherlands
Distance from station: VNV 60km
Uppdaterad: 20/06/2024 06:25
Delvis molnigt
Delvis molnigt
 Vind från NNO
Vind: NNO 17 km/h
Temperatur: 13°C
Daggpunkt: 11°C
Luftfuktighet: 88%
Barometer: 1020 hPa
Clouds: Delvis molnigt
Visibility: 10 km
2024/06/20 04:25 EHFS 200425Z AUTO 02009KT 350V050 9999 NSC 13/11 Q1020
 
EBBE - Beauvechain (baf, Belgium
Distance from station: SSO 64km
Uppdaterad: 20/06/2024 06:25
Övervägande molnigt
Övervägande molnigt
 Vind från ONO
Vind: ONO 9 km/h
Temperatur: 13°C
Daggpunkt: 11°C
Luftfuktighet: 88%
Barometer: 1019 hPa
Clouds: Övervägande molnigt
Visibility: 10 km
Cloud details: Delvis molnigt 3658 m
Övervägande molnigt 4572 m
2024/06/20 04:25 EBBE 200425Z 07005KT 9999 SCT120 BKN150 13/11 Q1019 BLU BLU
EHEH - Eindhoven Rnlafb, Netherlands
Distance from station: ONO 69km
Uppdaterad: 20/06/2024 06:25
Genommulet
Genommulet
 Vind från NO
Vind: NO 13 km/h
Temperatur: 13°C
Daggpunkt: 11°C
Luftfuktighet: 88%
Barometer: 1020 hPa
Clouds: Genommulet
Visibility: 10 km
Cloud details: Genommulet 6096 m
2024/06/20 04:25 EHEH 200425Z AUTO 05007KT 010V070 9999 OVC200 13/11 Q1020 BLU NOSIG
 
EBBL - Kleine-Brogel(Ba, Belgium
Distance from station: O 74km
Uppdaterad: 20/06/2024 06:25
Few Clouds
Few Clouds
 Vind från NO
Vind: NO 13 km/h
Temperatur: 12°C
Daggpunkt: 11°C
Luftfuktighet: 94%
Barometer: 1019 hPa
Clouds: Few Clouds
Visibility: 10 km
Cloud details: Few Clouds 6096 m
2024/06/20 04:25 EBBL 200425Z AUTO 05007KT 9999 FEW200/// 12/11 Q1019 BLU
EHRD - Rotterdam Airpor, Netherlands
Distance from station: N 75km
Uppdaterad: 20/06/2024 06:25
Delvis molnigt
Delvis molnigt
 Vind från NO
Vind: NO 6 km/h
Temperatur: 11°C
Daggpunkt: 10°C
Luftfuktighet: 94%
Barometer: 1022 hPa
Clouds: Delvis molnigt
Visibility: 10 km
2024/06/20 04:25 EHRD 200425Z AUTO 04003KT 010V090 9999 NSC 11/10 Q1022 NOSIG
 
EHSC - Goeree Le Sea, Netherlands
Distance from station: NV 89km
Uppdaterad: 20/06/2024 06:25

 Vind från NO
Vind: NO 24 km/h
Temperatur: 14°C
Daggpunkt: 11°C
Luftfuktighet: 82%
Barometer: 1021 hPa
Visibility: 10 km
2024/06/20 04:25 EHSC 200425Z AUTO 05013KT 9999 ///////// 14/11 Q1021 W16/H9
EBCI - Charleroi/Gossel, Belgium
Distance from station: S 90km
Uppdaterad: 20/06/2024 06:20
Klart
Klart
 Vind från ONO
Vind: ONO 9 km/h
Temperatur: 13°C
Daggpunkt: 11°C
Luftfuktighet: 88%
Barometer: 1020 hPa
Summering: Klart
Visibility: greater than 10 km
2024/06/20 04:20 EBCI 200420Z 06005KT CAVOK 13/11 Q1020 NOSIG
 
EBCV - Chievres Ab, Belgium
Distance from station: SSV 90km
Uppdaterad: 20/06/2024 06:25
Övervägande molnigt
Övervägande molnigt
 Vind från ONO
Vind: ONO 7 km/h
Temperatur: 13°C
Daggpunkt: 11°C
Luftfuktighet: 88%
Barometer: 1019 hPa
Clouds: Övervägande molnigt
Visibility: 10 km
Cloud details: Few Clouds 2286 m
Övervägande molnigt 3048 m
Övervägande molnigt 3353 m
2024/06/20 04:25 EBCV 200425Z AUTO 06004KT 9999 FEW075/// BKN100/// BKN110/// 13/11 Q1019 BLU
EHVK - Volkel Rnlafb, Netherlands
Distance from station: ONO 97km
Uppdaterad: 20/06/2024 06:25
Övervägande molnigt
Övervägande molnigt
 Vind från NO
Vind: NO 11 km/h
Temperatur: 12°C
Daggpunkt: 10°C
Luftfuktighet: 88%
Barometer: 1021 hPa
Clouds: Övervägande molnigt
Visibility: 10 km
Cloud details: Övervägande molnigt 6706 m
Övervägande molnigt 9144 m
2024/06/20 04:25 EHVK 200425Z AUTO 04006KT 360V080 9999 BKN220 BKN300 12/10 Q1021 BLU
 
EBLG - Bierset/Liege (c, Belgium
Distance from station: SO 102km
Uppdaterad: 20/06/2024 06:20
Klart
Klart
 Vind från O
Vind: O 7 km/h
Temperatur: 14°C
Daggpunkt: 11°C
Luftfuktighet: 82%
Barometer: 1019 hPa
Summering: Klart
Visibility: greater than 10 km
2024/06/20 04:20 EBLG 200420Z 10004KT 060V140 CAVOK 14/11 Q1019 NOSIG
EHBK - Zuid-Limburg/Bee, Netherlands
Distance from station: OSO 102km
Uppdaterad: 20/06/2024 06:25
Delvis molnigt
Delvis molnigt
 Vind från NO
Vind: NO 15 km/h
Temperatur: 12°C
Daggpunkt: 11°C
Luftfuktighet: 94%
Barometer: 1019 hPa
Clouds: Delvis molnigt
Visibility: 10 km
2024/06/20 04:25 EHBK 200425Z AUTO 05008KT 9999 NSC 12/11 Q1019 NOSIG
 
EBOS - Oostende Airport, Belgium
Distance from station: V 108km
Uppdaterad: 20/06/2024 06:20
Klart
Klart
 Vind från NO
Vind: NO 17 km/h
Temperatur: 13°C
Daggpunkt: 11°C
Luftfuktighet: 88%
Barometer: 1020 hPa
Summering: Klart
Visibility: greater than 10 km
2024/06/20 04:20 EBOS 200420Z 05009KT CAVOK 13/11 Q1020 NOSIG
EHSA - Euro Platform, Netherlands
Distance from station: NV 112km
Uppdaterad: 20/06/2024 06:25

 Vind från ONO
Vind: ONO 22 km/h
Temperatur: 14°C
Daggpunkt: 11°C
Luftfuktighet: 82%
Barometer: 1021 hPa
Visibility: 10 km
2024/06/20 04:25 EHSA 200425Z AUTO 06012KT 9999 ///////// 14/11 Q1021 W15/H8
 
EHAM - Amsterdam/Schiph, Netherlands
Distance from station: NNO 118km
Uppdaterad: 20/06/2024 06:25
Klart
Klart
 Vind från O
Vind: O 7 km/h
Temperatur: 11°C
Daggpunkt: 10°C
Luftfuktighet: 94%
Barometer: 1022 hPa
Summering: Klart
Visibility: greater than 10 km
2024/06/20 04:25 EHAM 200425Z 08004KT CAVOK 11/10 Q1022 NOSIG
ETNG - Geilenkirchen(Na, Germany
Distance from station: OSO 118km
Uppdaterad: 20/06/2024 05:50
Klart
Klart
 Vind från NNO
Vind: NNO 6 km/h
Temperatur: 11°C
Daggpunkt: 10°C
Luftfuktighet: 94%
Barometer: 1020 hPa
Summering: Klart
Visibility: greater than 10 km
2024/06/20 03:50 ETNG 200350Z 03003KT CAVOK 11/10 Q1020